createdAt,value
2016-06-17T00:00:36.510Z,993.86
2016-06-17T00:01:36.467Z,993.85
2016-06-17T00:02:36.454Z,993.85
2016-06-17T00:03:36.426Z,993.86
2016-06-17T00:04:36.415Z,993.89
2016-06-17T00:05:36.387Z,993.89
2016-06-17T00:06:36.359Z,993.94
2016-06-17T00:07:36.346Z,993.91
2016-06-17T00:08:36.335Z,993.91
2016-06-17T00:09:36.307Z,993.87
2016-06-17T00:10:36.295Z,993.93
2016-06-17T00:11:36.267Z,993.94
2016-06-17T00:12:36.239Z,993.98
2016-06-17T00:13:36.227Z,993.99
2016-06-17T00:14:36.199Z,994.01
2016-06-17T00:15:36.187Z,993.99
2016-06-17T00:16:36.175Z,993.99
2016-06-17T00:17:36.131Z,994
2016-06-17T00:18:36.119Z,993.98
2016-06-17T00:19:36.092Z,994
2016-06-17T00:20:36.063Z,993.93
2016-06-17T00:21:36.052Z,993.98
2016-06-17T00:22:36.023Z,994.02
2016-06-17T00:23:36.012Z,993.99
2016-06-17T00:24:35.984Z,993.98
2016-06-17T00:25:35.972Z,994.02
2016-06-17T00:26:35.944Z,993.98
2016-06-17T00:27:35.932Z,993.99
2016-06-17T00:28:35.904Z,993.98
2016-06-17T00:29:35.876Z,993.99
2016-06-17T00:30:35.880Z,993.99
2016-06-17T00:31:35.836Z,993.94
2016-06-17T00:32:35.824Z,993.95
2016-06-17T00:33:35.796Z,993.89
2016-06-17T00:34:35.784Z,993.89
2016-06-17T00:35:35.756Z,993.87
2016-06-17T00:36:35.729Z,993.85
2016-06-17T00:37:35.716Z,993.86
2016-06-17T00:38:35.689Z,993.85
2016-06-17T00:39:35.676Z,993.85
2016-06-17T00:40:35.648Z,993.81
2016-06-17T00:41:35.636Z,993.85
2016-06-17T00:42:35.609Z,993.84
2016-06-17T00:43:35.596Z,993.88
2016-06-17T00:44:35.568Z,993.86
2016-06-17T00:45:35.540Z,993.86
2016-06-17T00:46:35.528Z,993.88
2016-06-17T00:47:35.704Z,993.91
2016-06-17T00:48:35.488Z,993.87
2016-06-17T00:49:35.476Z,993.87
2016-06-17T00:50:35.432Z,993.83
2016-06-17T00:51:35.419Z,993.8
2016-06-17T00:52:35.391Z,993.77
2016-06-17T00:53:35.378Z,993.77
2016-06-17T00:54:35.350Z,993.75
2016-06-17T00:55:35.322Z,993.77
2016-06-17T00:56:35.309Z,993.8
2016-06-17T00:57:35.282Z,993.78
2016-06-17T00:58:35.269Z,993.8
2016-06-17T00:59:35.242Z,993.79
2016-06-17T01:00:35.230Z,993.82
2016-06-17T01:01:35.217Z,993.79
2016-06-17T01:02:35.190Z,993.78
2016-06-17T01:03:35.161Z,993.79
2016-06-17T01:04:35.149Z,993.8
2016-06-17T01:05:35.122Z,993.81
2016-06-17T01:06:35.094Z,993.79
2016-06-17T01:07:35.066Z,993.76
2016-06-17T01:08:35.070Z,993.78
2016-06-17T01:09:35.042Z,993.74
2016-06-17T01:10:35.154Z,993.76
2016-06-17T01:11:34.986Z,993.78
2016-06-17T01:12:34.974Z,993.78
2016-06-17T01:13:34.945Z,993.78
2016-06-17T01:14:34.918Z,993.79
2016-06-17T01:15:34.907Z,993.76
2016-06-17T01:16:34.878Z,993.76
2016-06-17T01:17:34.866Z,993.76
2016-06-17T01:18:34.838Z,993.73
2016-06-17T01:19:34.826Z,993.73
2016-06-17T01:20:34.877Z,993.68
2016-06-17T01:21:34.771Z,993.72
2016-06-17T01:22:34.758Z,993.65
2016-06-17T01:23:34.935Z,993.71
2016-06-17T01:24:34.718Z,993.65
2016-06-17T01:25:34.706Z,993.72
2016-06-17T01:26:34.663Z,993.75
2016-06-17T01:27:34.651Z,993.77
2016-06-17T01:28:34.622Z,993.83
2016-06-17T01:29:34.611Z,993.79
2016-06-17T01:30:34.614Z,993.79
2016-06-17T01:31:34.571Z,993.8
2016-06-17T01:32:34.544Z,993.8
2016-06-17T01:33:34.530Z,993.84
2016-06-17T01:34:34.503Z,993.83
2016-06-17T01:35:34.476Z,993.87
2016-06-17T01:36:34.464Z,993.91
2016-06-17T01:37:34.436Z,993.89
2016-06-17T01:38:34.408Z,993.9
2016-06-17T01:39:34.395Z,993.93
2016-06-17T01:40:34.368Z,993.91
2016-06-17T01:41:34.434Z,993.92
2016-06-17T01:42:34.359Z,993.9
2016-06-17T01:43:34.316Z,993.88
2016-06-17T01:44:34.288Z,993.89
2016-06-17T01:45:34.275Z,993.93
2016-06-17T01:46:34.248Z,993.92
2016-06-17T01:47:34.236Z,993.93
2016-06-17T01:48:34.238Z,993.91
2016-06-17T01:49:34.195Z,993.9
2016-06-17T01:50:34.168Z,993.89
2016-06-17T01:51:34.140Z,993.9
2016-06-17T01:52:34.113Z,993.89
2016-06-17T01:53:34.100Z,993.87
2016-06-17T01:54:34.103Z,993.89
2016-06-17T01:55:34.060Z,993.83
2016-06-17T01:56:34.035Z,993.86
2016-06-17T01:57:34.009Z,993.86
2016-06-17T01:58:33.997Z,993.89
2016-06-17T01:59:34.002Z,993.93
2016-06-17T02:00:33.960Z,993.92
2016-06-17T02:01:33.933Z,993.92
2016-06-17T02:02:33.906Z,993.93
2016-06-17T02:03:33.894Z,993.91
2016-06-17T02:04:33.881Z,993.92
2016-06-17T02:05:33.854Z,993.92
2016-06-17T02:06:33.843Z,993.91
2016-06-17T02:07:33.815Z,993.9
2016-06-17T02:08:33.788Z,993.9
2016-06-17T02:09:33.775Z,993.9
2016-06-17T02:10:33.748Z,993.89
2016-06-17T02:11:33.721Z,993.92
2016-06-17T02:12:33.709Z,993.92
2016-06-17T02:13:33.680Z,993.89
2016-06-17T02:14:33.668Z,993.91
2016-06-17T02:15:33.640Z,993.9
2016-06-17T02:16:33.629Z,993.92
2016-06-17T02:17:33.601Z,993.95
2016-06-17T02:18:33.573Z,993.91
2016-06-17T02:19:33.560Z,993.92
2016-06-17T02:20:33.533Z,993.93
2016-06-17T02:21:33.537Z,993.95
2016-06-17T02:22:33.508Z,993.93
2016-06-17T02:23:33.621Z,993.98
2016-06-17T02:24:33.563Z,993.95
2016-06-17T02:25:33.488Z,993.95
2016-06-17T02:26:33.523Z,993.93
2016-06-17T02:27:33.621Z,993.87
2016-06-17T02:28:33.373Z,993.88
2016-06-17T02:29:33.345Z,993.88
2016-06-17T02:30:33.318Z,993.87
2016-06-17T02:31:33.290Z,993.93
2016-06-17T02:32:33.294Z,993.91
2016-06-17T02:33:33.265Z,993.89
2016-06-17T02:34:33.253Z,993.92
2016-06-17T02:35:33.210Z,993.9
2016-06-17T02:36:33.199Z,993.91
2016-06-17T02:37:33.185Z,993.89
2016-06-17T02:38:33.236Z,993.88
2016-06-17T02:39:33.130Z,993.9
2016-06-17T02:40:33.102Z,993.92
2016-06-17T02:41:33.091Z,993.94
2016-06-17T02:42:33.078Z,993.93
2016-06-17T02:43:33.034Z,993.93
2016-06-17T02:44:33.022Z,993.96
2016-06-17T02:45:32.995Z,993.93
2016-06-17T02:46:32.998Z,993.95
2016-06-17T02:47:32.970Z,993.97
2016-06-17T02:48:32.943Z,993.96
2016-06-17T02:49:32.930Z,994.01
2016-06-17T02:50:32.903Z,994.02
2016-06-17T02:51:32.875Z,994.01
2016-06-17T02:52:32.846Z,994.04
2016-06-17T02:53:32.866Z,994.01
2016-06-17T02:54:32.807Z,994
2016-06-17T02:55:32.795Z,994
2016-06-17T02:56:32.767Z,993.98
2016-06-17T02:57:32.755Z,993.97
2016-06-17T02:58:32.727Z,993.95
2016-06-17T02:59:32.699Z,993.92
2016-06-17T03:00:32.734Z,993.97
2016-06-17T03:01:32.660Z,993.97
2016-06-17T03:02:32.663Z,993.99
2016-06-17T03:03:32.620Z,994.01
2016-06-17T03:04:32.591Z,993.99
2016-06-17T03:05:32.580Z,994.02
2016-06-17T03:06:32.552Z,994.01
2016-06-17T03:07:32.539Z,994.06
2016-06-17T03:08:32.512Z,994.1
2016-06-17T03:09:32.499Z,994.11
2016-06-17T03:10:32.487Z,994.13
2016-06-17T03:11:32.459Z,994.12
2016-06-17T03:12:32.416Z,994.11
2016-06-17T03:13:32.419Z,994.11
2016-06-17T03:14:32.392Z,994.15
2016-06-17T03:15:32.426Z,994.13
2016-06-17T03:16:32.352Z,994.14
2016-06-17T03:17:32.324Z,994.14
2016-06-17T03:18:32.296Z,994.14
2016-06-17T03:19:32.284Z,994.14
2016-06-17T03:20:32.271Z,994.1
2016-06-17T03:21:32.229Z,994.11
2016-06-17T03:22:32.217Z,994.14
2016-06-17T03:23:32.189Z,994.11
2016-06-17T03:24:32.176Z,994.11
2016-06-17T03:25:32.164Z,994.13
2016-06-17T03:26:32.136Z,994.14
2016-06-17T03:27:32.109Z,994.13
2016-06-17T03:28:32.096Z,994.14
2016-06-17T03:29:32.053Z,994.13
2016-06-17T03:30:32.041Z,994.12
2016-06-17T03:31:32.013Z,994.11
2016-06-17T03:32:32.001Z,994.13
2016-06-17T03:33:31.973Z,994.1
2016-06-17T03:34:31.960Z,994.1
2016-06-17T03:35:31.934Z,994.09
2016-06-17T03:36:31.905Z,994.1
2016-06-17T03:37:31.909Z,994.11
2016-06-17T03:38:31.866Z,994.09
2016-06-17T03:39:31.854Z,994.09
2016-06-17T03:40:31.825Z,994.02
2016-06-17T03:41:31.844Z,994.02
2016-06-17T03:42:31.785Z,994.03
2016-06-17T03:43:31.758Z,994
2016-06-17T03:44:31.746Z,994.01
2016-06-17T03:45:31.733Z,994.01
2016-06-17T03:46:31.722Z,994.02
2016-06-17T03:47:31.678Z,993.97
2016-06-17T03:48:31.666Z,993.98
2016-06-17T03:49:31.637Z,993.99
2016-06-17T03:50:31.610Z,994.03
2016-06-17T03:51:31.598Z,994.04
2016-06-17T03:52:31.570Z,994.06
2016-06-17T03:53:31.558Z,994.06
2016-06-17T03:54:31.530Z,994.11
2016-06-17T03:55:31.502Z,994.08
2016-06-17T03:56:31.490Z,994.13
2016-06-17T03:57:31.479Z,994.11
2016-06-17T03:58:31.450Z,994.11
2016-06-17T03:59:31.422Z,994.12
2016-06-17T04:00:31.395Z,994.11
2016-06-17T04:01:31.398Z,994.13
2016-06-17T04:02:31.355Z,994.16
2016-06-17T04:03:31.342Z,994.15
2016-06-17T04:04:31.314Z,994.17
2016-06-17T04:05:31.302Z,994.17
2016-06-17T04:06:31.275Z,994.18
2016-06-17T04:07:31.247Z,994.18
2016-06-17T04:08:31.234Z,994.21
2016-06-17T04:09:31.207Z,994.21
2016-06-17T04:10:31.179Z,994.2
2016-06-17T04:11:31.183Z,994.2
2016-06-17T04:12:31.189Z,994.2
2016-06-17T04:13:31.133Z,994.16
2016-06-17T04:14:31.109Z,994.19
2016-06-17T04:15:31.100Z,994.21
2016-06-17T04:16:31.075Z,994.22
2016-06-17T04:17:31.066Z,994.23
2016-06-17T04:18:31.038Z,994.24
2016-06-17T04:19:31.012Z,994.24
2016-06-17T04:20:30.985Z,994.27
2016-06-17T04:21:30.974Z,994.27
2016-06-17T04:22:30.948Z,994.3
2016-06-17T04:23:30.935Z,994.32
2016-06-17T04:24:30.908Z,994.33
2016-06-17T04:25:30.959Z,994.32
2016-06-17T04:26:30.884Z,994.36
2016-06-17T04:27:30.857Z,994.35
2016-06-17T04:28:30.845Z,994.38
2016-06-17T04:29:30.802Z,994.41
2016-06-17T04:30:30.790Z,994.38
2016-06-17T04:31:30.778Z,994.4
2016-06-17T04:32:30.767Z,994.4
2016-06-17T04:33:30.722Z,994.4
2016-06-17T04:34:30.695Z,994.4
2016-06-17T04:35:30.683Z,994.35
2016-06-17T04:36:30.672Z,994.3
2016-06-17T04:37:30.627Z,994.32
2016-06-17T04:38:30.615Z,994.3
2016-06-17T04:39:30.603Z,994.3
2016-06-17T04:40:30.575Z,994.31
2016-06-17T04:41:30.548Z,994.31
2016-06-17T04:42:30.550Z,994.35
2016-06-17T04:43:30.507Z,994.33
2016-06-17T04:44:30.495Z,994.35
2016-06-17T04:45:30.468Z,994.38
2016-06-17T04:46:30.440Z,994.38
2016-06-17T04:47:30.429Z,994.4
2016-06-17T04:48:30.399Z,994.44
2016-06-17T04:49:30.388Z,994.4
2016-06-17T04:50:30.359Z,994.42
2016-06-17T04:51:30.332Z,994.42
2016-06-17T04:52:30.321Z,994.38
2016-06-17T04:53:30.292Z,994.42
2016-06-17T04:54:30.295Z,994.45
2016-06-17T04:55:30.268Z,994.44
2016-06-17T04:56:30.241Z,994.49
2016-06-17T04:57:30.213Z,994.52
2016-06-17T04:58:30.232Z,994.52
2016-06-17T04:59:30.172Z,994.51
2016-06-17T05:00:30.160Z,994.53
2016-06-17T05:01:30.133Z,994.5
2016-06-17T05:02:30.105Z,994.47
2016-06-17T05:03:30.140Z,994.46
2016-06-17T05:04:30.065Z,994.48
2016-06-17T05:05:30.052Z,994.52
2016-06-17T05:06:30.025Z,994.55
2016-06-17T05:07:29.998Z,994.47
2016-06-17T05:08:29.969Z,994.51
2016-06-17T05:09:29.958Z,994.49
2016-06-17T05:10:29.928Z,994.54
2016-06-17T05:11:29.917Z,994.54
2016-06-17T05:12:29.890Z,994.6
2016-06-17T05:13:29.877Z,994.56
2016-06-17T05:14:29.850Z,994.57
2016-06-17T05:15:29.821Z,994.58
2016-06-17T05:16:29.809Z,994.56
2016-06-17T05:17:29.782Z,994.53
2016-06-17T05:18:29.769Z,994.59
2016-06-17T05:19:29.742Z,994.57
2016-06-17T05:20:29.730Z,994.55
2016-06-17T05:21:29.701Z,994.58
2016-06-17T05:22:29.674Z,994.55
2016-06-17T05:23:29.661Z,994.61
2016-06-17T05:24:29.649Z,994.59
2016-06-17T05:25:29.622Z,994.58
2016-06-17T05:26:29.594Z,994.58
2016-06-17T05:27:29.613Z,994.63
2016-06-17T05:28:29.554Z,994.63
2016-06-17T05:29:29.527Z,994.6
2016-06-17T05:30:29.498Z,994.6
2016-06-17T05:31:29.534Z,994.61
2016-06-17T05:32:29.490Z,994.56
2016-06-17T05:33:29.446Z,994.59
2016-06-17T05:34:29.419Z,994.57
2016-06-17T05:35:29.406Z,994.6
2016-06-17T05:36:29.379Z,994.6
2016-06-17T05:37:29.366Z,994.6
2016-06-17T05:38:29.339Z,994.66
2016-06-17T05:39:29.326Z,994.68
2016-06-17T05:40:29.329Z,994.65
2016-06-17T05:41:29.271Z,994.71
2016-06-17T05:42:29.258Z,994.66
2016-06-17T05:43:29.622Z,994.71
2016-06-17T05:44:29.203Z,994.71
2016-06-17T05:45:29.191Z,994.7
2016-06-17T05:46:29.163Z,994.7
2016-06-17T05:47:29.151Z,994.73
2016-06-17T05:48:29.123Z,994.72
2016-06-17T05:49:29.127Z,994.65
2016-06-17T05:50:29.099Z,994.68
2016-06-17T05:51:29.055Z,994.72
2016-06-17T05:52:29.090Z,994.71
2016-06-17T05:53:29.015Z,994.75
2016-06-17T05:54:29.019Z,994.77
2016-06-17T05:55:28.991Z,994.84
2016-06-17T05:56:28.979Z,994.83
2016-06-17T05:57:28.966Z,994.82
2016-06-17T05:58:28.938Z,994.79
2016-06-17T05:59:28.896Z,994.8
2016-06-17T06:00:28.867Z,994.81
2016-06-17T06:01:28.871Z,994.79
2016-06-17T06:02:28.828Z,994.77
2016-06-17T06:03:28.816Z,994.77
2016-06-17T06:04:28.787Z,994.8
2016-06-17T06:05:28.806Z,994.82
2016-06-17T06:06:28.747Z,994.83
2016-06-17T06:07:28.736Z,994.83
2016-06-17T06:08:28.787Z,994.88
2016-06-17T06:09:28.695Z,994.87
2016-06-17T06:10:28.668Z,994.86
2016-06-17T06:11:28.671Z,994.83
2016-06-17T06:12:28.628Z,994.85
2016-06-17T06:13:28.616Z,994.88
2016-06-17T06:14:28.588Z,994.9
2016-06-17T06:15:28.575Z,994.89
2016-06-17T06:16:28.548Z,994.93
2016-06-17T06:17:28.520Z,994.94
2016-06-17T06:18:28.508Z,994.89
2016-06-17T06:19:28.481Z,994.92
2016-06-17T06:20:28.467Z,994.92
2016-06-17T06:21:28.441Z,994.97
2016-06-17T06:22:28.412Z,994.95
2016-06-17T06:23:28.400Z,994.93
2016-06-17T06:24:28.389Z,994.97
2016-06-17T06:25:28.345Z,995.01
2016-06-17T06:26:28.333Z,995.01
2016-06-17T06:27:28.320Z,995.05
2016-06-17T06:28:28.293Z,995.05
2016-06-17T06:29:28.270Z,995.04
2016-06-17T06:30:28.248Z,995.02
2016-06-17T06:31:28.256Z,994.99
2016-06-17T06:32:28.218Z,995.07
2016-06-17T06:33:28.210Z,995.07
2016-06-17T06:34:28.184Z,995.09
2016-06-17T06:35:28.173Z,995.13
2016-06-17T06:36:28.147Z,995.14
2016-06-17T06:37:28.135Z,995.15
2016-06-17T06:38:28.110Z,995.17
2016-06-17T06:39:28.099Z,995.18
2016-06-17T06:40:28.088Z,995.22
2016-06-17T06:41:28.044Z,995.2
2016-06-17T06:42:28.033Z,995.22
2016-06-17T06:43:28.006Z,995.21
2016-06-17T06:44:27.994Z,995.31
2016-06-17T06:45:27.966Z,995.32
2016-06-17T06:46:27.954Z,995.34
2016-06-17T06:48:27.914Z,995.37
2016-06-17T06:49:27.886Z,995.33
2016-06-17T06:50:27.858Z,995.34
2016-06-17T06:51:27.846Z,995.32
2016-06-17T06:52:27.881Z,995.35
2016-06-17T06:53:27.807Z,995.35
2016-06-17T06:54:27.779Z,995.42
2016-06-17T06:55:27.892Z,995.39
2016-06-17T06:56:27.738Z,995.48
2016-06-17T06:57:27.710Z,995.48
2016-06-17T06:58:27.699Z,995.5
2016-06-17T06:59:27.686Z,995.49
2016-06-17T07:00:27.659Z,995.48
2016-06-17T07:01:27.631Z,995.5
2016-06-17T07:02:27.602Z,995.49
2016-06-17T07:03:27.590Z,995.52
2016-06-17T07:04:27.578Z,995.55
2016-06-17T07:05:27.551Z,995.54
2016-06-17T07:06:27.555Z,995.54
2016-06-17T07:07:27.510Z,995.55
2016-06-17T07:08:27.483Z,995.55
2016-06-17T07:09:27.455Z,995.57
2016-06-17T07:10:27.443Z,995.55
2016-06-17T07:11:27.431Z,995.56
2016-06-17T07:12:27.403Z,995.57
2016-06-17T07:13:27.407Z,995.58
2016-06-17T07:14:27.363Z,995.64
2016-06-17T07:15:27.335Z,995.64
2016-06-17T07:16:27.323Z,995.64
2016-06-17T07:17:27.312Z,995.65
2016-06-17T07:18:27.282Z,995.66
2016-06-17T07:19:27.272Z,995.65
2016-06-17T07:20:27.227Z,995.67
2016-06-17T07:21:27.215Z,995.67
2016-06-17T07:22:27.188Z,995.65
2016-06-17T07:23:27.176Z,995.7
2016-06-17T07:24:27.148Z,995.73
2016-06-17T07:25:27.120Z,995.74
2016-06-17T07:26:27.092Z,995.74
2016-06-17T07:27:27.080Z,995.78
2016-06-17T07:28:27.068Z,995.75
2016-06-17T07:29:27.055Z,995.72
2016-06-17T07:30:27.029Z,995.73
2016-06-17T07:31:27.671Z,995.74
2016-06-17T07:32:26.972Z,995.79
2016-06-17T07:33:26.960Z,995.78
2016-06-17T07:35:26.936Z,995.79
2016-06-17T07:36:26.892Z,995.84
2016-06-17T07:37:26.880Z,995.86
2016-06-17T07:38:26.852Z,995.87
2016-06-17T07:39:26.840Z,995.88
2016-06-17T07:40:26.828Z,995.89
2016-06-17T07:41:26.817Z,995.92
2016-06-17T07:42:26.787Z,995.94
2016-06-17T07:43:26.744Z,995.9
2016-06-17T07:44:26.733Z,995.91
2016-06-17T07:45:26.705Z,995.92
2016-06-17T07:46:26.693Z,995.89
2016-06-17T07:47:26.665Z,995.91
2016-06-17T07:48:26.637Z,995.91
2016-06-17T07:49:26.625Z,995.93
2016-06-17T07:50:26.597Z,995.9
2016-06-17T07:51:26.663Z,995.97
2016-06-17T07:52:26.558Z,995.97
2016-06-17T07:53:26.545Z,995.98
2016-06-17T07:54:26.517Z,995.99
2016-06-17T07:55:26.490Z,996.01
2016-06-17T07:56:26.477Z,996.03
2016-06-17T07:57:26.465Z,996.04
2016-06-17T07:58:26.437Z,996.05
2016-06-17T07:59:26.425Z,996.08
